createdAt,value
2022-10-14T06:21:19.399Z,2.40
2022-10-14T06:23:47.339Z,2.50
2022-10-14T06:26:15.277Z,3.17
2022-10-14T06:28:43.291Z,2.90
2022-10-14T06:31:11.185Z,2.37
2022-10-14T06:33:39.127Z,2.97
2022-10-14T06:36:08.011Z,4.10
2022-10-14T06:38:37.353Z,3.17
2022-10-14T06:41:05.336Z,2.60
2022-10-14T06:43:35.163Z,2.37
2022-10-14T06:46:04.316Z,3.20
2022-10-14T06:48:32.275Z,2.47
2022-10-14T06:51:00.957Z,2.20
2022-10-14T06:53:29.322Z,2.67
2022-10-14T06:56:03.263Z,3.03
2022-10-14T06:58:31.669Z,2.40
2022-10-14T07:01:02.539Z,2.53
2022-10-14T07:03:30.536Z,2.27
2022-10-14T07:05:58.467Z,2.03
2022-10-14T07:08:26.411Z,2.70
2022-10-14T07:10:54.412Z,2.30
2022-10-14T07:13:23.528Z,2.43
2022-10-14T07:15:52.445Z,2.37
2022-10-14T07:18:20.910Z,2.00
2022-10-14T07:20:48.806Z,2.40
2022-10-14T07:23:18.124Z,1.80
2022-10-14T07:25:46.408Z,2.00
2022-10-14T07:28:14.409Z,1.70
2022-10-14T07:30:43.688Z,1.90
2022-10-14T07:33:11.709Z,1.47
2022-10-14T07:35:39.915Z,1.60
2022-10-14T07:38:07.693Z,1.87
2022-10-14T07:40:35.800Z,1.50
2022-10-14T07:43:03.725Z,1.80
2022-10-14T07:45:35.520Z,1.70
2022-10-14T07:48:04.911Z,1.67
2022-10-14T07:50:32.970Z,1.70
2022-10-14T07:53:01.541Z,1.60
2022-10-14T07:55:29.564Z,1.40
2022-10-14T07:57:57.672Z,1.50
2022-10-14T08:00:25.608Z,1.57
2022-10-14T08:02:54.879Z,1.50
2022-10-14T08:05:39.477Z,1.10
2022-10-14T08:08:07.760Z,1.00
2022-10-14T08:10:36.732Z,0.90
2022-10-14T08:13:04.613Z,1.10
2022-10-14T08:15:35.353Z,1.10
2022-10-14T08:18:03.196Z,1.43
2022-10-14T08:20:32.579Z,1.33
2022-10-14T08:23:00.632Z,1.20
2022-10-14T08:25:28.524Z,1.17
2022-10-14T08:27:57.638Z,0.60
2022-10-14T08:30:25.825Z,0.87
2022-10-14T08:32:53.777Z,1.03
2022-10-14T08:35:21.943Z,0.77
2022-10-14T08:37:58.903Z,1.10
2022-10-14T08:40:29.257Z,1.00
2022-10-14T08:43:02.229Z,1.00
2022-10-14T08:45:35.160Z,1.10
2022-10-14T08:48:09.578Z,0.97
2022-10-14T08:50:42.438Z,0.93
2022-10-14T08:53:15.707Z,0.80
2022-10-14T08:55:47.429Z,0.90
2022-10-14T08:58:21.620Z,1.00
2022-10-14T09:00:52.540Z,0.80
2022-10-14T09:03:23.648Z,0.80
2022-10-14T09:05:58.490Z,1.20
2022-10-14T09:08:34.057Z,0.87
2022-10-14T09:11:02.454Z,0.90
2022-10-14T09:13:35.354Z,0.80
2022-10-14T09:16:07.593Z,0.90
2022-10-14T09:18:41.405Z,0.83
2022-10-14T09:21:40.828Z,0.67
2022-10-14T09:24:17.928Z,0.70
2022-10-14T09:26:48.130Z,1.10
2022-10-14T09:29:24.456Z,0.80
2022-10-14T09:31:52.833Z,1.00
2022-10-14T09:34:25.788Z,1.13
2022-10-14T09:36:55.025Z,0.90
2022-10-14T09:39:24.353Z,0.50
2022-10-14T09:41:55.380Z,1.20
2022-10-14T09:44:25.819Z,0.50
2022-10-14T09:46:57.404Z,0.77
2022-10-14T09:49:35.858Z,1.27
2022-10-14T09:52:04.067Z,0.60
2022-10-14T09:54:34.372Z,0.50
2022-10-14T09:57:07.374Z,0.70
2022-10-14T09:59:48.690Z,0.70
2022-10-14T10:02:24.247Z,0.67
2022-10-14T10:04:54.901Z,1.00
2022-10-14T10:07:30.937Z,0.90
2022-10-14T10:10:01.740Z,1.00
2022-10-14T10:12:33.134Z,0.50
2022-10-14T10:15:03.763Z,0.63
2022-10-14T10:17:32.869Z,1.10
2022-10-14T10:20:28.269Z,0.80
2022-10-14T10:22:57.647Z,0.40
2022-10-14T10:25:29.443Z,0.70
2022-10-14T10:28:00.312Z,0.80
2022-10-14T10:30:32.461Z,1.23
2022-10-14T10:33:19.203Z,0.87
2022-10-14T10:38:59.612Z,0.43
2022-10-14T10:41:58.411Z,0.37
2022-10-14T10:44:47.624Z,0.60
2022-10-14T10:47:27.780Z,0.50
2022-10-14T10:50:10.269Z,0.70
2022-10-14T10:52:56.532Z,0.60
2022-10-14T10:55:35.540Z,0.70
2022-10-14T10:58:18.148Z,0.60
2022-10-14T11:00:53.136Z,0.70
2022-10-14T11:03:36.802Z,0.70
2022-10-14T11:06:11.814Z,0.40
2022-10-14T11:09:15.026Z,0.73
2022-10-14T11:12:07.808Z,0.67
2022-10-14T11:14:58.975Z,0.87
2022-10-14T11:17:34.071Z,0.50
2022-10-14T11:20:13.352Z,0.80
2022-10-14T11:23:00.089Z,0.80
2022-10-14T11:25:46.307Z,1.10
2022-10-14T11:28:24.351Z,0.80
2022-10-14T11:31:02.233Z,1.90
2022-10-14T11:33:44.597Z,0.70
2022-10-14T11:36:22.521Z,0.70
2022-10-14T11:39:05.553Z,0.93
2022-10-14T11:41:49.963Z,1.33
2022-10-14T11:44:30.064Z,1.20
2022-10-14T11:47:04.474Z,1.27
2022-10-14T11:49:38.136Z,1.40
2022-10-14T11:52:09.986Z,0.77
2022-10-14T11:54:41.194Z,0.70
2022-10-14T11:57:15.391Z,1.03
2022-10-14T11:59:49.873Z,0.93
2022-10-14T12:02:35.218Z,0.57
2022-10-14T12:05:08.936Z,0.80
2022-10-14T12:07:43.161Z,0.73
2022-10-14T12:10:22.553Z,0.83
2022-10-14T12:12:52.316Z,1.57
2022-10-14T12:15:23.219Z,0.77
2022-10-14T12:17:55.697Z,1.20
2022-10-14T12:20:32.588Z,0.90
2022-10-14T12:23:01.922Z,0.87
2022-10-14T12:25:36.782Z,0.70
2022-10-14T12:28:05.310Z,1.20
2022-10-14T12:30:36.031Z,0.80
2022-10-14T12:33:07.977Z,0.87
2022-10-14T12:35:54.387Z,0.93
2022-10-14T12:38:23.349Z,0.83
2022-10-14T12:40:51.168Z,0.87
2022-10-14T12:43:25.619Z,0.90
2022-10-14T12:46:03.882Z,0.50
2022-10-14T12:48:35.832Z,0.83
2022-10-14T12:51:13.286Z,1.33
2022-10-14T12:53:50.977Z,0.90
2022-10-14T12:56:32.190Z,1.17
2022-10-14T12:59:02.656Z,0.73
2022-10-14T13:01:35.322Z,1.90
2022-10-14T13:04:08.821Z,1.60
2022-10-14T13:06:39.364Z,0.90
2022-10-14T13:09:40.861Z,0.90
2022-10-14T13:12:47.894Z,0.90
2022-10-14T13:15:48.537Z,1.30
2022-10-14T13:18:51.383Z,0.90
2022-10-14T13:21:51.452Z,0.70
2022-10-14T13:24:26.034Z,0.80
2022-10-14T13:27:06.222Z,0.70
2022-10-14T13:29:48.631Z,1.23
2022-10-14T13:32:31.143Z,0.90
2022-10-14T13:35:07.983Z,0.80
2022-10-14T13:37:42.077Z,0.87
2022-10-14T13:40:26.665Z,1.00
2022-10-14T13:42:57.938Z,1.03
2022-10-14T13:45:37.048Z,0.83
2022-10-14T13:48:11.097Z,1.30
2022-10-14T13:50:39.673Z,1.07
2022-10-14T13:53:18.073Z,1.70
2022-10-14T13:55:51.715Z,1.10
2022-10-14T13:58:24.821Z,1.20
2022-10-14T14:01:01.839Z,1.23
2022-10-14T14:03:33.949Z,1.13
2022-10-14T14:06:04.172Z,1.30
2022-10-14T14:08:40.501Z,1.30
2022-10-14T14:11:18.701Z,1.70
2022-10-14T14:14:01.435Z,1.40
2022-10-14T14:16:36.329Z,0.90
2022-10-14T14:19:09.636Z,1.20
2022-10-14T14:21:38.424Z,1.37
2022-10-14T14:24:18.293Z,1.23
2022-10-14T14:26:46.541Z,1.60
2022-10-14T14:29:26.825Z,1.33
2022-10-14T14:32:06.014Z,1.20
2022-10-14T14:34:37.201Z,1.07
2022-10-14T14:37:23.513Z,2.43
2022-10-14T14:39:59.320Z,1.50
2022-10-14T14:42:29.814Z,1.93
2022-10-14T14:45:02.075Z,2.00
2022-10-14T14:47:31.079Z,2.20
2022-10-14T14:50:28.534Z,1.70
2022-10-14T14:52:51.466Z,1.97
2022-10-14T14:55:44.214Z,1.50
2022-10-14T14:58:23.765Z,1.97
2022-10-14T15:00:54.541Z,2.00
2022-10-14T15:03:24.381Z,1.60
2022-10-14T15:05:54.094Z,1.43
2022-10-14T15:08:24.965Z,1.90
2022-10-14T15:10:56.427Z,2.23
2022-10-14T15:13:33.878Z,1.63
2022-10-14T15:16:01.790Z,1.67
2022-10-14T15:18:30.574Z,1.70
2022-10-14T15:21:16.335Z,1.70
2022-10-14T15:23:58.639Z,1.80
2022-10-14T15:26:34.356Z,2.17
2022-10-14T15:29:17.898Z,2.30
2022-10-14T15:31:48.251Z,1.60
2022-10-14T15:34:19.689Z,2.17
2022-10-14T15:36:51.126Z,2.73
2022-10-14T15:39:18.982Z,1.50
2022-10-14T15:41:48.462Z,2.10
2022-10-14T15:44:16.979Z,2.33
2022-10-14T15:47:00.339Z,1.80
2022-10-14T15:49:31.320Z,2.67
2022-10-14T15:51:59.194Z,1.47
2022-10-14T15:54:27.788Z,2.10
2022-10-14T15:56:58.461Z,1.67
2022-10-14T15:59:27.578Z,1.67
2022-10-14T16:01:55.586Z,2.67
2022-10-14T16:04:25.901Z,1.73
2022-10-14T16:06:55.179Z,2.10
2022-10-14T16:09:23.579Z,1.70
2022-10-14T16:11:57.256Z,1.73
2022-10-14T16:14:27.712Z,1.33
2022-10-14T16:16:56.163Z,2.47
2022-10-14T16:19:23.992Z,2.07
2022-10-14T16:21:51.823Z,2.40
2022-10-14T16:24:21.874Z,2.17
2022-10-14T16:26:50.822Z,1.30
2022-10-14T16:29:19.353Z,2.20
2022-10-14T16:31:50.215Z,1.83
2022-10-14T16:34:19.442Z,2.17
2022-10-14T16:36:48.817Z,2.87
2022-10-14T16:39:17.937Z,2.07
2022-10-14T16:41:46.141Z,2.10
2022-10-14T16:44:25.027Z,2.10
2022-10-14T16:47:13.099Z,1.77
2022-10-14T16:49:41.434Z,2.53
2022-10-14T16:52:09.678Z,2.13
2022-10-14T16:54:38.041Z,2.30
2022-10-14T16:57:06.850Z,2.97
2022-10-14T16:59:34.898Z,2.83
2022-10-14T17:02:05.337Z,2.80
2022-10-14T17:04:33.611Z,2.53
2022-10-14T17:07:07.007Z,2.20
2022-10-14T17:09:36.172Z,2.93
2022-10-14T17:12:08.043Z,2.50
2022-10-14T17:14:39.277Z,2.53
2022-10-14T17:17:08.830Z,3.90
2022-10-14T17:19:36.952Z,3.00
2022-10-14T17:22:05.005Z,2.60
2022-10-14T17:24:33.100Z,2.70
2022-10-14T17:27:04.366Z,2.30
2022-10-14T17:29:32.587Z,2.10
2022-10-14T17:32:00.495Z,1.93
2022-10-14T17:34:29.724Z,2.60
2022-10-14T17:36:59.611Z,1.83
2022-10-14T17:39:29.558Z,2.80
2022-10-14T17:41:57.871Z,3.60
2022-10-14T17:44:26.263Z,2.33
2022-10-14T17:46:54.188Z,2.30
2022-10-14T17:49:22.342Z,1.90
2022-10-14T17:51:51.756Z,1.97
2022-10-14T17:54:19.686Z,2.87
2022-10-14T17:56:47.723Z,2.60
2022-10-14T17:59:15.750Z,3.70
2022-10-14T18:02:01.641Z,1.93
2022-10-14T18:04:30.402Z,2.80
2022-10-14T18:06:59.612Z,2.43
2022-10-14T18:09:27.518Z,2.00
2022-10-14T18:12:08.101Z,2.43
2022-10-14T18:14:36.454Z,2.07
2022-10-14T18:17:05.304Z,2.50
2022-10-14T18:19:33.862Z,2.10
2022-10-14T18:22:03.415Z,2.17
2022-10-14T18:24:32.290Z,3.53
2022-10-14T18:27:00.307Z,2.40
2022-10-14T18:29:28.434Z,2.43
2022-10-14T18:31:56.297Z,2.40
2022-10-14T18:34:25.374Z,2.80
2022-10-14T18:36:53.382Z,1.97
2022-10-14T18:39:22.871Z,2.40
2022-10-14T18:41:50.876Z,3.00
2022-10-14T18:44:19.232Z,2.53
2022-10-14T18:46:48.005Z,2.07
2022-10-14T18:49:16.022Z,2.03
2022-10-14T18:51:44.444Z,2.10
2022-10-14T18:54:15.253Z,2.00
2022-10-14T18:56:45.548Z,3.13
2022-10-14T18:59:15.637Z,2.43
2022-10-14T19:01:44.406Z,1.93
2022-10-14T19:04:14.608Z,2.37
2022-10-14T19:06:44.959Z,2.00
2022-10-14T19:09:13.914Z,3.50
2022-10-14T19:11:42.890Z,2.77
2022-10-14T19:14:14.362Z,3.50
2022-10-14T19:16:42.806Z,3.37
2022-10-14T19:19:15.199Z,3.37
2022-10-14T19:21:43.584Z,2.30
2022-10-14T19:24:12.663Z,2.60
2022-10-14T19:26:42.512Z,2.50
2022-10-14T19:29:13.836Z,2.50
2022-10-14T19:31:43.685Z,2.73
2022-10-14T19:34:13.971Z,2.55
2022-10-14T19:36:42.554Z,2.50
2022-10-14T19:39:13.926Z,2.83
2022-10-14T19:41:44.782Z,2.90
2022-10-14T19:44:15.653Z,2.87
2022-10-14T19:46:43.961Z,4.13
2022-10-14T19:49:13.818Z,2.83
2022-10-14T19:51:42.218Z,2.17
2022-10-14T19:54:12.240Z,2.27
2022-10-14T19:56:40.348Z,2.53
2022-10-14T19:59:08.530Z,3.10
2022-10-14T20:01:37.746Z,2.20
2022-10-14T20:04:07.085Z,2.20
2022-10-14T20:06:37.803Z,2.67
2022-10-14T20:09:06.716Z,3.00
2022-10-14T20:11:35.470Z,2.50
2022-10-14T20:14:03.345Z,2.10
2022-10-14T20:16:31.365Z,2.73
2022-10-14T20:19:00.643Z,2.73
2022-10-14T20:21:30.003Z,3.40
2022-10-14T20:23:59.129Z,2.80
2022-10-14T20:26:27.556Z,3.40
2022-10-14T20:28:55.885Z,3.50
2022-10-14T20:31:25.433Z,3.27
2022-10-14T20:33:53.470Z,2.67
2022-10-14T20:36:23.622Z,2.40
2022-10-14T20:38:52.077Z,2.40
2022-10-14T20:41:22.371Z,2.17
2022-10-14T20:43:51.045Z,2.50
2022-10-14T20:46:19.087Z,2.33
2022-10-14T20:48:47.351Z,2.37
2022-10-14T20:51:17.546Z,1.70
2022-10-14T20:53:46.849Z,2.43
2022-10-14T20:56:15.652Z,2.60
2022-10-14T20:58:44.140Z,1.93
2022-10-14T21:01:14.833Z,2.20
2022-10-14T21:03:44.420Z,2.60
2022-10-14T21:06:14.273Z,1.97
2022-10-14T21:08:42.333Z,1.87
2022-10-14T21:11:15.326Z,2.00
2022-10-14T21:13:45.854Z,1.60
2022-10-14T21:16:15.542Z,1.93
2022-10-14T21:18:46.930Z,2.10
2022-10-14T21:21:16.795Z,1.77
2022-10-14T21:23:45.202Z,1.90
2022-10-14T21:26:14.709Z,1.97
2022-10-14T21:28:42.925Z,1.90
2022-10-14T21:31:14.774Z,1.77
2022-10-14T21:33:45.506Z,1.83
2022-10-14T21:36:15.703Z,1.60
2022-10-14T21:38:43.657Z,1.63
2022-10-14T21:41:12.170Z,1.83
2022-10-14T21:43:41.639Z,1.90
2022-10-14T21:46:11.083Z,1.80
2022-10-14T21:48:39.340Z,1.33
2022-10-14T21:51:10.274Z,1.60
2022-10-14T21:53:39.158Z,2.07
2022-10-14T21:56:07.691Z,1.87
2022-10-14T21:58:35.650Z,1.80
2022-10-14T22:01:07.637Z,1.40
2022-10-14T22:03:36.822Z,1.57
2022-10-14T22:06:07.426Z,1.73
2022-10-14T22:08:37.054Z,1.90
2022-10-14T22:11:06.280Z,1.90
2022-10-14T22:13:35.454Z,1.60
2022-10-14T22:16:04.873Z,1.87
2022-10-14T22:18:32.804Z,2.13
2022-10-14T22:21:04.992Z,2.03
2022-10-14T22:23:33.035Z,2.13
2022-10-14T22:26:02.394Z,2.20
2022-10-14T22:28:31.667Z,2.43
2022-10-14T22:31:06.285Z,1.90
2022-10-14T22:33:36.224Z,1.80
2022-10-14T22:36:08.925Z,2.13
2022-10-14T22:38:37.466Z,1.67
2022-10-14T22:41:06.545Z,1.90
2022-10-14T22:43:34.585Z,2.03
2022-10-14T22:46:03.335Z,1.50
2022-10-14T22:48:33.228Z,2.13
2022-10-14T22:51:05.446Z,1.53
2022-10-14T22:53:33.860Z,1.70
2022-10-14T22:56:02.281Z,1.67
2022-10-14T22:58:30.040Z,1.53
2022-10-14T23:00:58.336Z,1.90
2022-10-14T23:03:27.143Z,1.60
2022-10-14T23:06:01.081Z,1.33
2022-10-14T23:08:29.104Z,1.40
2022-10-14T23:10:57.989Z,2.10
2022-10-14T23:13:26.432Z,1.60
2022-10-14T23:15:57.502Z,2.03
2022-10-14T23:18:25.740Z,1.90
2022-10-14T23:20:54.009Z,1.70
2022-10-14T23:23:23.324Z,1.83
2022-10-14T23:25:51.199Z,1.50
2022-10-14T23:28:19.199Z,1.40
2022-10-14T23:30:47.189Z,1.33
2022-10-14T23:33:15.112Z,1.40
2022-10-14T23:35:43.037Z,1.37
2022-10-14T23:38:12.352Z,1.27
2022-10-14T23:40:41.731Z,1.60
2022-10-14T23:43:09.581Z,1.30
2022-10-14T23:45:37.739Z,1.40
2022-10-14T23:48:06.075Z,1.30
2022-10-14T23:50:34.296Z,1.30
2022-10-14T23:53:02.174Z,1.30
2022-10-14T23:55:30.585Z,1.30
2022-10-14T23:58:00.256Z,0.90
